Aérodrome :
LOGIN :

S'inscrire | Disclaimer

   EN    FR    IT 

 










Légende :    VFR   VFR Marginal   IFR   IFR Intensif   IFR Très Intensif
Visi : 
Plafond : 
>= 8 km
>= 3000ft
5 à 8 km
1000 à 3000 ft
1500m à 5 km
500 à 1000 ft
800 à 1500m
200 à 500 ft
< 800m
< 200 ft
Symboles :   Orages  Brouillard  Fortes neiges  Fortes précipitations  Vent > 20 kt
SIGMETs :   Divers  Orages  Givrage  Turbulence  Onde Orograph.  Cendres Volcan.






- Altitude de l'aérodrome : 327 ft
- Code IATA : BHX


EGBB - Birmingham

DERNIER METAR :
  • 280350Z 18006KT CAVOK 10/09 Q1016

METARs EXPIRÉS :
  • 280320Z 18006KT CAVOK 10/08 Q1016
  • 280250Z 18006KT CAVOK 10/08 Q1016
  • 280220Z 17006KT CAVOK 10/08 Q1016
  • 280150Z 18005KT CAVOK 09/08 Q1016
  • 280120Z 18004KT CAVOK 10/08 Q1016

TAF TAF EGBB
Valide du 28 à 00h jusqu'au 29 à 00h UTC


272252Z 2800/2824 20007KT 9999 FEW030
BECMG 2810/2813 18015G25KT
PROB40
TEMPO 2810/2813 8000 SHRA
TEMPO 2813/2819 7000 RA SHRA
PROB40
TEMPO 2814/2819 17018G35KT 3000 +RA +SHRA BKN014 BKN020CB
BECMG 2818/2821 27006KT
ATIS : +44 121 780 0910



MET'MAP, la Météo Aéronautique d'un coup d'oeil ! - Copyright ORBIFLY Décembre 2007 - Disclaimer

ORBIFLY MET'MAP TEAM :

Programmation & Développement : Alexandra Zaïnal
Sur une idée originale de : Baudouin d'Aumeries
Assistance à la programmation : Marc-Olivier Méhu
Soutien technique & logistique : Manuel Goepfert

Contact : metmap@orbifly.com




SOURCES & CREDITS :

   NOAA